Time;durP1;ratioP1;P1;durP2;ratioP2;P2;SDS_P1;SDS_P2;PMS_P1;PMS_P2;Temp;Humidity;BMP_temperature;BMP_pressure;BME280_temperature;BME280_humidity;BME280_pressure;Samples;Min_cycle;Max_cycle;Signal;HPM_P1;HPM_P2
2023/12/03 00:00:43;;;;;;;64.75;34.97;;;1.10;99.90;;;;;;5098403;28;20032;-68
2023/12/03 00:03:11;;;;;;;58.72;32.42;;;1.10;99.90;;;;;;5081616;28;20047;-68
2023/12/03 00:05:38;;;;;;;66.30;33.90;;;1.10;99.90;;;;;;5098466;28;20044;-68
2023/12/03 00:08:04;;;;;;;58.85;30.90;;;1.00;99.90;;;;;;5080982;28;20043;-68
2023/12/03 00:10:31;;;;;;;63.67;32.63;;;1.00;99.90;;;;;;5081623;28;20549;-67
2023/12/03 00:12:57;;;;;;;57.90;30.48;;;1.00;99.90;;;;;;5081174;28;20046;-68
2023/12/03 00:15:22;;;;;;;59.10;31.95;;;1.00;99.90;;;;;;5098284;28;20040;-68
2023/12/03 00:17:49;;;;;;;60.45;33.33;;;0.90;99.90;;;;;;5098228;28;20061;-67
2023/12/03 00:20:15;;;;;;;66.03;33.25;;;1.00;99.90;;;;;;5081397;28;20045;-68
2023/12/03 00:22:41;;;;;;;60.08;32.60;;;0.90;99.90;;;;;;5097801;28;20124;-68
2023/12/03 00:25:07;;;;;;;65.13;33.20;;;0.90;99.90;;;;;;5064646;28;20130;-68
2023/12/03 00:27:33;;;;;;;67.70;33.35;;;0.90;99.90;;;;;;5098106;28;20062;-68
2023/12/03 00:29:59;;;;;;;60.20;31.17;;;0.90;99.90;;;;;;5097792;28;20039;-68
2023/12/03 00:32:25;;;;;;;66.15;32.38;;;0.90;99.90;;;;;;5080645;28;20046;-68
2023/12/03 00:34:50;;;;;;;61.42;32.97;;;0.80;99.90;;;;;;5096224;28;20080;-68
2023/12/03 00:37:16;;;;;;;58.33;30.60;;;0.80;99.90;;;;;;5098042;28;20066;-68
2023/12/03 00:39:42;;;;;;;59.40;31.05;;;0.80;99.90;;;;;;5097760;28;20054;-72
2023/12/03 00:42:07;;;;;;;61.85;31.15;;;0.80;99.90;;;;;;5097403;28;20043;-71
2023/12/03 00:44:33;;;;;;;74.45;33.40;;;1.10;99.90;;;;;;5097354;28;20059;-71
2023/12/03 00:47:00;;;;;;;66.38;32.05;;;0.80;99.90;;;;;;5080893;28;20051;-71
2023/12/03 00:49:25;;;;;;;56.55;30.05;;;0.80;99.90;;;;;;5097491;28;20051;-71
2023/12/03 00:51:51;;;;;;;61.50;31.88;;;0.80;99.90;;;;;;5097415;28;20051;-72
2023/12/03 00:54:17;;;;;;;61.58;30.73;;;0.80;99.90;;;;;;5080301;28;20048;-70
2023/12/03 00:56:43;;;;;;;62.00;31.95;;;0.80;99.90;;;;;;5080630;28;20082;-70
2023/12/03 00:59:09;;;;;;;68.15;33.70;;;0.80;99.90;;;;;;5097405;28;20039;-71
2023/12/03 01:01:34;;;;;;;60.95;30.13;;;0.80;99.90;;;;;;5097467;28;20104;-70
2023/12/03 01:04:00;;;;;;;59.03;31.50;;;0.90;99.90;;;;;;5063828;28;20077;-71
2023/12/03 01:06:26;;;;;;;57.75;29.75;;;0.80;99.90;;;;;;5097420;28;20039;-73
2023/12/03 01:08:53;;;;;;;58.92;31.13;;;0.80;99.90;;;;;;5063811;28;20047;-71
2023/12/03 01:11:18;;;;;;;53.83;29.85;;;0.80;99.90;;;;;;5080350;28;20039;-71
2023/12/03 01:13:44;;;;;;;60.33;30.50;;;0.80;99.90;;;;;;5096811;28;20149;-71
2023/12/03 01:16:19;;;;;;;58.30;29.42;;;0.80;99.90;;;;;;5080073;28;20035;-71
2023/12/03 01:18:45;;;;;;;59.58;29.83;;;0.80;99.90;;;;;;5096953;28;20523;-71
2023/12/03 01:21:10;;;;;;;59.40;30.60;;;0.80;99.90;;;;;;5096966;28;20035;-71
2023/12/03 01:23:36;;;;;;;64.47;31.23;;;0.80;99.90;;;;;;5080071;28;20039;-71
2023/12/03 01:26:02;;;;;;;60.88;30.48;;;0.80;99.90;;;;;;5080358;28;20032;-71
2023/12/03 01:28:28;;;;;;;55.22;30.23;;;0.80;99.90;;;;;;5096346;28;20083;-71
2023/12/03 01:30:53;;;;;;;53.83;28.92;;;0.90;99.90;;;;;;5096445;28;20491;-72
2023/12/03 01:33:19;;;;;;;59.03;31.50;;;0.90;99.90;;;;;;5096473;28;20035;-71
2023/12/03 01:35:45;;;;;;;58.67;31.33;;;0.80;99.90;;;;;;5096798;28;20089;-71
2023/12/03 01:38:10;;;;;;;58.65;31.52;;;0.80;99.90;;;;;;5096410;28;20036;-71
2023/12/03 01:40:36;;;;;;;57.88;30.13;;;0.80;99.90;;;;;;5096094;28;20035;-71
2023/12/03 01:43:02;;;;;;;60.40;30.55;;;0.90;99.90;;;;;;5096613;28;20039;-71
2023/12/03 01:45:28;;;;;;;57.22;29.85;;;0.90;99.90;;;;;;5095954;28;20040;-71
2023/12/03 01:47:55;;;;;;;55.13;30.17;;;0.90;99.90;;;;;;5079888;28;20118;-71
2023/12/03 01:50:22;;;;;;;53.70;28.80;;;0.90;99.90;;;;;;5096554;28;20035;-68
2023/12/03 01:52:49;;;;;;;61.13;32.00;;;0.90;99.90;;;;;;5095892;28;20055;-68
2023/12/03 01:55:18;;;;;;;53.15;30.08;;;0.80;99.90;;;;;;5114447;28;20247;-68
2023/12/03 01:57:44;;;;;;;55.60;29.42;;;0.90;99.90;;;;;;5096219;28;20114;-68
2023/12/03 02:00:10;;;;;;;59.38;31.08;;;1.00;99.90;;;;;;5079030;28;20040;-68
2023/12/03 02:02:36;;;;;;;57.95;31.33;;;0.90;99.90;;;;;;5096030;28;20398;-68
2023/12/03 02:05:02;;;;;;;57.13;30.85;;;1.00;99.90;;;;;;5079016;28;20043;-69
2023/12/03 02:07:28;;;;;;;54.33;30.63;;;0.90;99.90;;;;;;5095910;28;20040;-68
2023/12/03 02:09:55;;;;;;;59.22;31.33;;;0.90;99.90;;;;;;5095991;28;20079;-68
2023/12/03 02:12:21;;;;;;;59.65;31.23;;;1.00;99.90;;;;;;5096140;28;20429;-68
2023/12/03 02:14:47;;;;;;;59.20;32.75;;;0.90;99.90;;;;;;5095848;28;20035;-68
2023/12/03 02:17:13;;;;;;;60.00;32.20;;;0.90;99.90;;;;;;5095617;28;20047;-68
2023/12/03 02:19:39;;;;;;;62.53;31.77;;;1.00;99.90;;;;;;5095624;28;20035;-68
2023/12/03 02:22:04;;;;;;;61.97;32.88;;;1.00;99.90;;;;;;5078519;28;20082;-68
2023/12/03 02:24:30;;;;;;;57.65;31.88;;;1.10;99.90;;;;;;5095537;28;20070;-68
2023/12/03 02:26:56;;;;;;;64.80;33.63;;;0.90;99.90;;;;;;5095391;28;20039;-68
2023/12/03 02:29:21;;;;;;;59.63;32.13;;;0.90;99.90;;;;;;5078468;28;20035;-68
2023/12/03 02:31:47;;;;;;;60.90;32.90;;;0.90;99.90;;;;;;5095654;28;20040;-68
2023/12/03 02:34:13;;;;;;;68.50;33.90;;;0.90;99.90;;;;;;5095237;28;20046;-68
2023/12/03 02:36:39;;;;;;;61.25;31.95;;;1.10;99.90;;;;;;5078294;28;20097;-68
2023/12/03 02:39:05;;;;;;;58.70;30.95;;;1.00;99.90;;;;;;5078579;28;20043;-68
2023/12/03 02:41:31;;;;;;;76.85;34.78;;;0.90;99.90;;;;;;5095231;28;20039;-68
2023/12/03 02:43:57;;;;;;;68.75;34.70;;;0.90;99.90;;;;;;5095513;28;20486;-68
2023/12/03 02:46:23;;;;;;;83.30;37.25;;;1.00;99.90;;;;;;5095417;28;20122;-68
2023/12/03 02:48:49;;;;;;;66.57;33.10;;;0.90;99.90;;;;;;5095205;28;20039;-68
2023/12/03 02:51:15;;;;;;;61.55;32.60;;;0.90;99.90;;;;;;5094920;28;20047;-68
2023/12/03 02:53:44;;;;;;;83.32;35.30;;;1.00;99.90;;;;;;5095314;28;20050;-68
2023/12/03 02:56:12;;;;;;;72.82;32.65;;;1.00;99.90;;;;;;5078262;28;20130;-69
2023/12/03 02:58:38;;;;;;;68.25;32.50;;;1.00;99.90;;;;;;5094678;28;20031;-68
2023/12/03 03:01:07;;;;;;;81.25;33.83;;;1.00;99.90;;;;;;5094954;28;20078;-68
2023/12/03 03:03:33;;;;;;;67.90;33.75;;;1.00;99.90;;;;;;5094728;28;20036;-68
2023/12/03 03:05:59;;;;;;;147.70;41.13;;;1.00;99.90;;;;;;5061679;28;20047;-68
2023/12/03 03:08:25;;;;;;;74.95;33.60;;;1.00;99.90;;;;;;5078509;28;20079;-68
2023/12/03 03:10:50;;;;;;;68.57;33.97;;;1.00;99.90;;;;;;5113092;28;20047;-68
2023/12/03 03:13:16;;;;;;;123.53;41.10;;;1.10;99.90;;;;;;5094845;28;20036;-68
2023/12/03 03:15:42;;;;;;;74.55;35.88;;;1.00;99.90;;;;;;5094949;28;20039;-69
2023/12/03 03:18:08;;;;;;;93.90;37.13;;;1.00;99.90;;;;;;5077917;28;20051;-69
2023/12/03 03:20:34;;;;;;;72.93;36.00;;;1.00;99.90;;;;;;5094642;28;20130;-69
2023/12/03 03:23:00;;;;;;;84.43;37.45;;;1.00;99.90;;;;;;5094748;28;20043;-68
2023/12/03 03:25:26;;;;;;;90.70;39.05;;;1.10;99.90;;;;;;5094641;28;20487;-68
2023/12/03 03:27:52;;;;;;;92.72;38.30;;;1.10;99.90;;;;;;5094905;28;20043;-68
2023/12/03 03:30:17;;;;;;;263.83;48.03;;;1.10;99.90;;;;;;5094484;28;20047;-68
2023/12/03 03:32:43;;;;;;;106.07;39.83;;;1.10;99.90;;;;;;5077952;28;20035;-69
2023/12/03 03:35:09;;;;;;;122.63;39.88;;;1.00;99.90;;;;;;5094934;28;20092;-68
2023/12/03 03:37:35;;;;;;;167.30;41.42;;;1.00;99.90;;;;;;5095013;28;20035;-69
2023/12/03 03:40:01;;;;;;;96.80;38.42;;;1.10;99.90;;;;;;5094477;28;20032;-68
2023/12/03 03:42:26;;;;;;;82.03;29.50;;;1.00;99.90;;;;;;5094803;28;20036;-68
2023/12/03 03:44:52;;;;;;;140.63;38.95;;;1.10;99.90;;;;;;5094488;28;20047;-67
2023/12/03 03:47:18;;;;;;;84.13;34.35;;;1.10;99.90;;;;;;5094606;28;20384;-68
2023/12/03 03:49:44;;;;;;;98.80;35.45;;;1.00;99.90;;;;;;5094834;28;20039;-68
2023/12/03 03:52:09;;;;;;;89.80;36.65;;;1.00;99.90;;;;;;5077541;28;20084;-68
2023/12/03 03:54:40;;;;;;;100.70;37.05;;;1.00;99.90;;;;;;5094429;28;20043;-68
2023/12/03 03:57:06;;;;;;;76.05;34.30;;;1.00;99.90;;;;;;5077987;28;20032;-68
2023/12/03 03:59:32;;;;;;;131.38;38.30;;;1.00;99.90;;;;;;5094134;28;20042;-68
2023/12/03 04:01:58;;;;;;;181.23;41.13;;;1.00;99.90;;;;;;5060982;28;20038;-68
2023/12/03 04:04:23;;;;;;;102.22;35.58;;;1.00;99.90;;;;;;5094512;28;20040;-68
2023/12/03 04:06:49;;;;;;;84.38;36.47;;;1.00;99.90;;;;;;5094423;28;20036;-68
2023/12/03 04:09:15;;;;;;;84.18;35.83;;;1.00;99.90;;;;;;5096093;28;20066;-71
2023/12/03 04:11:41;;;;;;;104.68;37.25;;;1.00;99.90;;;;;;5098353;28;20482;-71
2023/12/03 04:14:08;;;;;;;79.72;34.78;;;1.00;99.90;;;;;;5081235;28;20039;-72
2023/12/03 04:16:35;;;;;;;138.80;36.33;;;1.00;99.90;;;;;;5097867;28;20044;-71
2023/12/03 04:19:01;;;;;;;287.33;43.67;;;1.00;99.90;;;;;;5098422;28;20550;-71
2023/12/03 04:21:27;;;;;;;95.80;37.15;;;1.00;99.90;;;;;;5081130;28;20036;-72
2023/12/03 04:23:52;;;;;;;103.82;35.22;;;1.00;99.90;;;;;;5098286;28;20040;-71
2023/12/03 04:26:18;;;;;;;111.82;34.95;;;1.00;99.90;;;;;;5081019;28;20051;-72
2023/12/03 04:28:44;;;;;;;91.30;35.28;;;1.00;99.90;;;;;;5080903;28;20047;-71
2023/12/03 04:31:21;;;;;;;145.73;37.50;;;1.00;99.90;;;;;;5064288;28;20107;-71
2023/12/03 04:33:54;;;;;;;120.70;35.10;;;1.00;99.90;;;;;;5097641;28;20086;-74
2023/12/03 04:36:24;;;;;;;243.40;40.58;;;1.00;99.90;;;;;;5097916;28;20043;-72
2023/12/03 04:38:51;;;;;;;127.88;35.90;;;1.00;99.90;;;;;;5064591;28;20071;-72
2023/12/03 04:41:17;;;;;;;96.60;35.05;;;1.00;99.90;;;;;;5097410;28;20036;-72
2023/12/03 04:43:43;;;;;;;145.10;35.47;;;1.00;99.90;;;;;;5097609;28;20039;-73
2023/12/03 04:46:09;;;;;;;90.85;32.83;;;1.10;99.90;;;;;;5097453;28;20058;-72
2023/12/03 04:48:36;;;;;;;68.05;32.33;;;1.00;99.90;;;;;;5097645;28;20043;-72
2023/12/03 04:51:02;;;;;;;95.55;33.40;;;1.10;99.90;;;;;;5080633;28;20101;-71
2023/12/03 04:53:28;;;;;;;135.07;35.55;;;1.00;99.90;;;;;;5097239;28;20067;-71
2023/12/03 04:55:54;;;;;;;125.13;35.80;;;1.10;99.90;;;;;;5097254;28;20035;-72
2023/12/03 04:58:20;;;;;;;87.78;31.67;;;1.00;99.90;;;;;;5097317;28;20049;-71
2023/12/03 05:00:46;;;;;;;94.15;34.30;;;1.00;99.90;;;;;;5097468;28;20031;-71
2023/12/03 05:03:11;;;;;;;124.65;35.85;;;1.00;99.90;;;;;;5097176;28;20051;-71
2023/12/03 05:05:37;;;;;;;179.18;39.45;;;1.00;99.90;;;;;;5097030;28;20047;-72
2023/12/03 05:08:03;;;;;;;148.70;37.75;;;1.00;99.90;;;;;;5080222;28;20047;-72
2023/12/03 05:10:29;;;;;;;105.68;35.97;;;1.00;99.90;;;;;;5080643;28;20039;-72
2023/12/03 05:12:55;;;;;;;139.05;38.05;;;1.00;99.90;;;;;;5080009;28;20051;-73
2023/12/03 05:15:21;;;;;;;83.13;31.35;;;1.10;99.90;;;;;;5080114;28;20047;-71
2023/12/03 05:17:47;;;;;;;113.22;34.53;;;1.00;99.90;;;;;;5097018;28;20479;-72
2023/12/03 05:20:13;;;;;;;80.80;29.13;;;1.10;99.90;;;;;;5096511;28;20038;-72
2023/12/03 05:22:40;;;;;;;85.55;32.00;;;1.00;99.90;;;;;;5096855;28;20045;-72
2023/12/03 05:25:06;;;;;;;85.95;31.77;;;1.00;99.90;;;;;;5063433;28;20071;-72
2023/12/03 05:27:32;;;;;;;107.10;34.63;;;1.00;99.90;;;;;;5080273;28;20503;-72
2023/12/03 05:29:58;;;;;;;100.88;33.33;;;1.00;99.90;;;;;;5096629;28;20046;-71
2023/12/03 05:32:24;;;;;;;138.02;37.15;;;1.00;99.90;;;;;;5096860;28;20038;-72
2023/12/03 05:34:50;;;;;;;142.68;36.97;;;1.10;99.90;;;;;;5080213;28;20110;-72
2023/12/03 05:37:15;;;;;;;95.60;32.47;;;1.10;99.90;;;;;;5096758;28;20040;-72
2023/12/03 05:39:42;;;;;;;98.47;33.88;;;1.00;99.90;;;;;;5096171;28;20038;-72
2023/12/03 05:42:07;;;;;;;139.32;37.00;;;1.10;99.90;;;;;;5096477;28;20039;-72
2023/12/03 05:44:33;;;;;;;128.07;34.17;;;1.10;99.90;;;;;;5096370;28;20046;-72
2023/12/03 05:47:00;;;;;;;182.80;38.60;;;1.10;99.90;;;;;;5096258;28;20043;-72
2023/12/03 05:49:26;;;;;;;105.72;35.75;;;1.10;99.90;;;;;;5079291;28;20097;-72
2023/12/03 05:51:52;;;;;;;164.07;38.58;;;1.10;99.90;;;;;;5096026;28;20063;-71
2023/12/03 05:54:18;;;;;;;78.50;30.85;;;1.10;99.90;;;;;;5079333;28;20050;-71
2023/12/03 05:56:44;;;;;;;100.57;33.35;;;1.20;99.90;;;;;;5096065;28;20031;-73
2023/12/03 05:59:11;;;;;;;89.95;31.48;;;1.20;99.90;;;;;;5096305;28;20050;-72
2023/12/03 06:01:36;;;;;;;77.20;30.05;;;1.10;99.90;;;;;;5079400;28;20071;-72
2023/12/03 06:04:06;;;;;;;91.80;30.75;;;1.20;99.90;;;;;;5079246;28;20407;-72
2023/12/03 06:06:32;;;;;;;91.35;29.48;;;1.10;99.90;;;;;;5095976;28;20047;-72
2023/12/03 06:08:58;;;;;;;82.35;26.98;;;1.10;99.90;;;;;;5095969;28;20122;-72
2023/12/03 06:11:24;;;;;;;105.65;32.17;;;1.10;99.90;;;;;;5095892;28;20506;-72
2023/12/03 06:13:50;;;;;;;91.80;31.65;;;1.10;99.90;;;;;;5095966;28;20040;-72
2023/12/03 06:16:16;;;;;;;104.45;29.58;;;1.10;99.90;;;;;;5078680;28;20042;-73
2023/12/03 06:18:42;;;;;;;88.78;30.70;;;1.10;99.90;;;;;;5095941;28;20478;-72
2023/12/03 06:21:08;;;;;;;91.60;30.52;;;1.10;99.90;;;;;;5095744;28;20058;-72
2023/12/03 06:23:35;;;;;;;101.20;30.75;;;1.10;99.90;;;;;;5095862;28;20043;-72
2023/12/03 06:26:01;;;;;;;118.68;32.10;;;1.10;99.90;;;;;;5095635;28;20136;-72
2023/12/03 06:28:27;;;;;;;96.28;30.73;;;1.10;99.90;;;;;;5078889;28;20341;-72
2023/12/03 06:30:53;;;;;;;163.68;34.72;;;1.10;99.90;;;;;;5095569;28;20040;-72
2023/12/03 06:33:19;;;;;;;121.75;33.15;;;1.10;99.90;;;;;;5095624;28;20051;-72
2023/12/03 06:35:45;;;;;;;108.72;32.78;;;1.10;99.90;;;;;;5095739;28;20395;-72
2023/12/03 06:38:11;;;;;;;184.15;37.13;;;1.20;99.90;;;;;;5061782;28;20122;-69
2023/12/03 06:40:37;;;;;;;167.30;36.70;;;1.20;99.90;;;;;;5095396;28;20035;-69
2023/12/03 06:43:03;;;;;;;114.15;33.75;;;1.20;99.90;;;;;;5078418;28;20035;-69
2023/12/03 06:45:28;;;;;;;150.00;36.63;;;1.20;99.90;;;;;;5095241;28;20097;-68
2023/12/03 06:47:54;;;;;;;124.18;36.60;;;1.20;99.90;;;;;;5078119;28;20080;-69
2023/12/03 06:50:20;;;;;;;155.43;36.90;;;1.20;99.90;;;;;;5095685;28;20459;-71
2023/12/03 06:52:46;;;;;;;169.75;38.17;;;1.20;99.90;;;;;;5095145;28;20055;-72
2023/12/03 06:55:12;;;;;;;147.18;37.33;;;1.20;99.90;;;;;;5095269;28;20087;-72
2023/12/03 06:57:38;;;;;;;122.60;34.58;;;1.20;99.90;;;;;;5095407;28;20047;-72
2023/12/03 07:00:06;;;;;;;126.88;35.80;;;1.20;99.90;;;;;;5095711;28;20403;-72
2023/12/03 07:02:32;;;;;;;127.03;35.47;;;1.20;99.90;;;;;;5113687;28;20058;-71
2023/12/03 07:04:58;;;;;;;121.78;35.15;;;1.20;99.90;;;;;;5095426;28;20058;-72
2023/12/03 07:07:24;;;;;;;104.85;33.45;;;1.20;99.90;;;;;;5078542;28;20039;-72
2023/12/03 07:09:50;;;;;;;128.57;35.20;;;1.30;99.90;;;;;;5095510;28;20096;-74
2023/12/03 07:12:16;;;;;;;117.00;34.03;;;1.30;99.90;;;;;;5095254;28;20039;-71
2023/12/03 07:14:42;;;;;;;102.28;32.45;;;1.30;99.90;;;;;;5095587;28;20040;-72
2023/12/03 07:17:08;;;;;;;109.10;33.60;;;1.30;99.90;;;;;;5078435;28;20055;-72
2023/12/03 07:19:34;;;;;;;131.70;34.47;;;1.30;99.90;;;;;;5078149;28;20036;-72
2023/12/03 07:21:59;;;;;;;96.10;31.38;;;1.30;99.90;;;;;;5094874;28;20036;-72
2023/12/03 07:24:25;;;;;;;101.40;32.40;;;1.30;99.90;;;;;;5095022;28;20044;-72
2023/12/03 07:26:51;;;;;;;114.20;32.95;;;1.30;99.90;;;;;;5094706;28;20039;-72
2023/12/03 07:29:20;;;;;;;100.78;30.45;;;1.30;99.90;;;;;;5094916;28;20491;-72
2023/12/03 07:31:45;;;;;;;114.78;32.88;;;1.40;99.90;;;;;;5094671;28;20047;-72
2023/12/03 07:34:11;;;;;;;115.15;33.50;;;1.30;99.90;;;;;;5077662;28;20043;-72
2023/12/03 07:36:37;;;;;;;126.75;34.33;;;1.30;99.90;;;;;;5078219;28;20027;-72
2023/12/03 07:39:03;;;;;;;121.72;34.28;;;1.50;99.90;;;;;;5094943;28;20038;-72
2023/12/03 07:41:31;;;;;;;137.50;35.67;;;1.40;99.90;;;;;;5094658;28;20039;-72
2023/12/03 07:43:56;;;;;;;109.30;31.98;;;1.40;99.90;;;;;;5096161;28;20548;-72
2023/12/03 07:46:22;;;;;;;108.35;33.05;;;1.30;99.90;;;;;;5098496;28;20051;-72
2023/12/03 07:48:48;;;;;;;105.75;31.77;;;1.40;99.90;;;;;;5065071;28;20046;-72
2023/12/03 07:51:14;;;;;;;120.43;34.22;;;1.40;99.90;;;;;;5081706;28;20204;-72
2023/12/03 07:53:40;;;;;;;94.50;29.88;;;1.40;99.90;;;;;;5098213;28;20052;-72
2023/12/03 07:56:08;;;;;;;102.40;30.33;;;1.40;99.90;;;;;;5098791;28;20110;-71
2023/12/03 07:58:36;;;;;;;89.75;29.60;;;1.40;99.90;;;;;;5098424;28;20036;-72
2023/12/03 08:01:03;;;;;;;110.00;32.03;;;1.40;99.90;;;;;;5081911;28;20035;-72
2023/12/03 08:03:29;;;;;;;92.70;28.98;;;1.40;99.90;;;;;;5098576;28;20044;-72
2023/12/03 08:05:55;;;;;;;87.32;28.02;;;1.40;99.90;;;;;;5098484;28;20093;-72
2023/12/03 08:08:21;;;;;;;97.63;29.05;;;1.40;99.90;;;;;;5098281;28;20039;-72
2023/12/03 08:10:47;;;;;;;93.70;28.80;;;1.40;99.90;;;;;;5098539;28;20040;-73
2023/12/03 08:13:12;;;;;;;88.55;29.23;;;1.40;99.90;;;;;;5098290;28;20039;-72
2023/12/03 08:15:38;;;;;;;93.10;29.70;;;1.40;99.90;;;;;;5098129;28;20074;-73
2023/12/03 08:18:04;;;;;;;87.55;29.30;;;1.50;99.90;;;;;;5098125;28;20031;-75
2023/12/03 08:20:30;;;;;;;89.55;29.08;;;1.50;99.90;;;;;;5097921;28;20129;-73
2023/12/03 08:22:56;;;;;;;93.10;30.02;;;1.50;99.90;;;;;;5098110;28;20513;-73
2023/12/03 08:25:22;;;;;;;89.88;29.30;;;1.50;99.90;;;;;;5098309;28;20077;-73
2023/12/03 08:27:47;;;;;;;104.07;32.10;;;1.50;99.90;;;;;;5097943;28;20043;-73
2023/12/03 08:30:13;;;;;;;95.65;30.35;;;1.50;99.90;;;;;;5097824;28;20046;-73
2023/12/03 08:32:39;;;;;;;87.05;29.15;;;1.50;99.90;;;;;;5053605;28;20475;-74
2023/12/03 08:35:05;;;;;;;93.93;29.58;;;1.50;99.90;;;;;;5077329;28;20388;-73
2023/12/03 08:37:31;;;;;;;94.13;30.88;;;1.50;99.90;;;;;;5077699;28;20032;-73
2023/12/03 08:40:00;;;;;;;106.53;30.88;;;1.50;99.90;;;;;;5077400;28;20043;-73
2023/12/03 08:42:26;;;;;;;83.35;28.90;;;1.60;99.90;;;;;;5077303;28;20036;-73
2023/12/03 08:44:51;;;;;;;82.82;29.25;;;1.60;99.90;;;;;;5077373;28;20126;-73
2023/12/03 08:47:17;;;;;;;81.13;29.70;;;1.60;99.90;;;;;;5060592;28;20039;-73
2023/12/03 08:49:43;;;;;;;82.05;29.85;;;1.60;99.90;;;;;;5077297;28;20050;-70
2023/12/03 08:52:09;;;;;;;93.43;31.60;;;1.70;99.90;;;;;;5069476;28;20130;-70
2023/12/03 08:54:35;;;;;;;87.85;31.25;;;1.70;99.90;;;;;;5056600;28;20052;-70
2023/12/03 08:57:00;;;;;;;95.68;32.45;;;1.70;99.90;;;;;;5056204;28;20511;-69
2023/12/03 08:59:26;;;;;;;90.22;31.27;;;1.70;99.90;;;;;;5057166;28;20480;-69
2023/12/03 09:01:52;;;;;;;94.68;33.25;;;1.70;99.90;;;;;;5023865;28;20124;-70
2023/12/03 09:04:18;;;;;;;88.25;31.85;;;1.70;99.90;;;;;;5023951;28;20060;-70
2023/12/03 09:06:44;;;;;;;77.45;30.85;;;1.80;99.90;;;;;;5057224;28;20496;-70
2023/12/03 09:09:10;;;;;;;85.00;31.50;;;1.80;99.90;;;;;;5024053;28;20127;-70
2023/12/03 09:11:40;;;;;;;89.22;33.50;;;1.80;99.90;;;;;;5056773;28;20044;-70
2023/12/03 09:14:06;;;;;;;81.38;32.00;;;1.80;99.90;;;;;;5056574;28;20037;-70
2023/12/03 09:16:32;;;;;;;86.50;33.45;;;1.80;99.90;;;;;;5056562;28;20404;-70
2023/12/03 09:18:58;;;;;;;84.35;32.83;;;1.90;99.90;;;;;;5056560;28;20036;-70
2023/12/03 09:21:23;;;;;;;83.45;34.03;;;1.90;99.90;;;;;;5040085;28;20123;-70
2023/12/03 09:23:49;;;;;;;89.40;34.00;;;1.90;99.90;;;;;;5056397;28;20493;-70
2023/12/03 09:26:16;;;;;;;86.85;34.15;;;1.90;99.90;;;;;;5039940;28;20048;-70
2023/12/03 09:28:41;;;;;;;84.38;33.58;;;2.00;99.90;;;;;;5056735;28;20456;-70
2023/12/03 09:31:07;;;;;;;85.07;33.53;;;2.00;99.90;;;;;;5023297;28;20044;-70
2023/12/03 09:33:33;;;;;;;80.63;33.88;;;2.00;99.90;;;;;;5056364;28;20123;-70
2023/12/03 09:35:59;;;;;;;84.88;34.35;;;2.10;99.90;;;;;;5056408;28;20041;-70
2023/12/03 09:38:25;;;;;;;79.63;34.25;;;2.20;99.90;;;;;;5056560;28;20083;-70
2023/12/03 09:40:56;;;;;;;83.40;35.65;;;2.20;99.90;;;;;;5056126;28;20036;-71
2023/12/03 09:43:26;;;;;;;79.15;36.55;;;2.20;99.90;;;;;;5056531;28;20043;-70
2023/12/03 09:45:55;;;;;;;82.72;36.63;;;2.20;99.90;;;;;;5039456;28;20048;-70
2023/12/03 09:48:22;;;;;;;81.28;38.85;;;2.30;99.90;;;;;;5056417;28;20471;-70
2023/12/03 09:50:50;;;;;;;82.40;39.30;;;2.30;99.90;;;;;;5039438;28;20044;-70
2023/12/03 09:53:20;;;;;;;83.00;40.10;;;2.40;99.90;;;;;;5085818;28;20056;-70
2023/12/03 09:55:46;;;;;;;79.93;39.95;;;2.50;99.90;;;;;;5076046;28;20097;-70
2023/12/03 09:58:15;;;;;;;80.40;41.03;;;2.60;99.90;;;;;;5075702;28;20036;-71
2023/12/03 10:00:42;;;;;;;73.50;37.60;;;2.70;99.90;;;;;;5092914;28;20044;-71
2023/12/03 10:03:08;;;;;;;70.82;39.72;;;2.80;99.90;;;;;;5092799;28;20059;-70
2023/12/03 10:05:34;;;;;;;67.00;39.25;;;2.90;99.90;;;;;;5092563;28;20039;-70
2023/12/03 10:08:00;;;;;;;63.13;37.42;;;2.90;99.90;;;;;;5092291;28;20066;-70
2023/12/03 10:10:31;;;;;;;66.03;38.17;;;2.90;99.90;;;;;;5075700;28;20090;-70
2023/12/03 10:12:58;;;;;;;63.53;38.80;;;2.90;99.90;;;;;;5092534;28;20040;-71
2023/12/03 10:15:25;;;;;;;62.15;36.05;;;2.80;99.90;;;;;;5075291;28;20063;-70
2023/12/03 10:17:51;;;;;;;64.10;39.92;;;2.70;99.90;;;;;;5075667;28;20040;-70
2023/12/03 10:20:22;;;;;;;58.70;37.10;;;2.80;99.90;;;;;;5092451;28;20040;-70
2023/12/03 10:22:52;;;;;;;59.63;36.90;;;2.80;99.90;;;;;;5092198;28;20044;-70
2023/12/03 10:25:29;;;;;;;57.17;37.65;;;2.80;99.90;;;;;;5092582;28;20079;-71
2023/12/03 10:27:55;;;;;;;56.42;35.72;;;2.80;99.90;;;;;;5059054;28;20417;-70
2023/12/03 10:30:21;;;;;;;58.97;36.85;;;2.80;99.90;;;;;;5091945;28;20118;-70
2023/12/03 10:32:47;;;;;;;57.33;36.70;;;2.80;99.90;;;;;;5092068;28;20040;-70
2023/12/03 10:35:13;;;;;;;57.45;36.78;;;2.80;99.90;;;;;;5091901;28;20035;-71
2023/12/03 10:37:39;;;;;;;55.92;35.50;;;2.90;99.90;;;;;;5091939;28;20109;-70
2023/12/03 10:40:06;;;;;;;55.13;35.78;;;2.90;99.90;;;;;;5075545;28;20047;-73
2023/12/03 10:42:36;;;;;;;55.38;36.53;;;3.00;99.90;;;;;;5075103;28;20324;-73
2023/12/03 10:45:15;;;;;;;57.13;36.15;;;3.10;99.90;;;;;;5091943;28;20052;-74
2023/12/03 10:47:43;;;;;;;56.15;35.78;;;3.10;99.90;;;;;;5091973;28;20101;-73
2023/12/03 10:50:12;;;;;;;54.53;35.80;;;3.10;99.90;;;;;;5068027;28;20079;-73
2023/12/03 10:52:39;;;;;;;54.78;35.30;;;3.10;99.90;;;;;;5112155;28;20056;-74
2023/12/03 10:55:09;;;;;;;57.65;36.60;;;3.00;99.90;;;;;;5095159;28;20048;-73
2023/12/03 10:57:43;;;;;;;50.83;33.03;;;3.10;99.90;;;;;;5112228;28;20035;-73
2023/12/03 11:00:09;;;;;;;53.80;35.13;;;3.10;99.90;;;;;;5112291;28;20046;-74
2023/12/03 11:02:52;;;;;;;50.33;33.75;;;3.10;99.90;;;;;;5095325;28;20491;-73
2023/12/03 11:05:32;;;;;;;49.50;31.50;;;3.20;99.90;;;;;;5112253;28;20036;-73
2023/12/03 11:08:01;;;;;;;47.63;32.13;;;3.20;99.90;;;;;;5112193;28;20036;-71
2023/12/03 11:10:27;;;;;;;46.78;30.83;;;3.30;99.90;;;;;;5112070;28;20036;-73
2023/12/03 11:12:54;;;;;;;44.67;28.08;;;3.30;99.90;;;;;;5095069;28;20482;-72
2023/12/03 11:15:21;;;;;;;43.28;30.02;;;3.20;99.90;;;;;;5111841;28;20040;-74
2023/12/03 11:17:50;;;;;;;43.88;28.00;;;3.30;99.90;;;;;;5111641;28;20487;-73
2023/12/03 11:20:32;;;;;;;41.15;27.73;;;3.30;99.90;;;;;;5094627;28;20038;-71
2023/12/03 11:23:01;;;;;;;41.25;27.45;;;3.20;99.90;;;;;;5111810;28;20036;-70
2023/12/03 11:25:35;;;;;;;43.70;27.95;;;3.20;99.90;;;;;;5111725;28;20043;-70
2023/12/03 11:28:01;;;;;;;44.80;29.15;;;3.20;99.90;;;;;;5111679;28;20104;-72
2023/12/03 11:30:38;;;;;;;43.65;27.85;;;3.20;99.90;;;;;;5111889;28;20044;-73
2023/12/03 11:33:11;;;;;;;39.72;25.27;;;3.10;99.90;;;;;;5095073;28;20044;-73
2023/12/03 11:35:45;;;;;;;39.45;26.08;;;3.10;99.90;;;;;;5111827;28;20048;-73
2023/12/03 11:38:25;;;;;;;46.65;29.25;;;3.00;99.90;;;;;;5111795;28;20085;-74
2023/12/03 11:40:50;;;;;;;38.53;25.08;;;3.00;99.90;;;;;;5112264;28;20061;-73
2023/12/03 11:43:26;;;;;;;43.13;28.55;;;2.90;99.90;;;;;;5111763;28;20040;-73
2023/12/03 11:45:52;;;;;;;42.88;27.90;;;2.90;99.90;;;;;;5078012;28;20116;-73
2023/12/03 11:48:19;;;;;;;42.15;26.15;;;2.80;99.90;;;;;;5077992;28;20047;-73
2023/12/03 11:50:46;;;;;;;41.53;26.50;;;2.80;99.90;;;;;;5112107;28;20048;-73
2023/12/03 11:53:15;;;;;;;41.50;25.70;;;2.80;99.90;;;;;;5098495;28;20074;-73
2023/12/03 11:55:46;;;;;;;42.97;27.85;;;2.80;99.90;;;;;;5095010;28;20043;-73
2023/12/03 11:58:13;;;;;;;41.58;26.67;;;2.60;99.90;;;;;;5095606;28;20605;-73
2023/12/03 12:00:40;;;;;;;44.05;26.75;;;2.70;99.90;;;;;;5095294;28;20116;-73
2023/12/03 12:03:07;;;;;;;44.53;28.30;;;2.60;99.90;;;;;;5078485;28;20039;-73
2023/12/03 12:05:41;;;;;;;42.45;28.83;;;2.60;99.90;;;;;;5094575;28;20043;-73
2023/12/03 12:08:08;;;;;;;45.63;27.98;;;2.50;99.90;;;;;;5078164;28;20047;-73
2023/12/03 12:10:34;;;;;;;47.15;28.67;;;2.50;99.90;;;;;;5094815;28;20522;-74
2023/12/03 12:13:02;;;;;;;49.28;29.63;;;2.40;99.90;;;;;;5094647;28;20047;-72
2023/12/03 12:15:28;;;;;;;48.22;30.08;;;2.40;99.90;;;;;;5094480;28;20035;-73
2023/12/03 12:17:54;;;;;;;50.55;30.67;;;2.40;99.90;;;;;;5094886;28;20039;-73
2023/12/03 12:20:26;;;;;;;54.20;30.95;;;2.30;99.90;;;;;;5077850;28;20043;-73
2023/12/03 12:22:52;;;;;;;55.13;32.28;;;2.20;99.90;;;;;;5077883;28;20031;-73
2023/12/03 12:25:19;;;;;;;60.17;34.08;;;2.20;99.90;;;;;;5077862;28;20043;-73
2023/12/03 12:27:47;;;;;;;57.35;32.47;;;2.20;99.90;;;;;;5077686;28;20050;-73
2023/12/03 12:30:15;;;;;;;57.58;32.72;;;2.20;99.90;;;;;;5096032;28;20039;-73